Time;durP1;ratioP1;P1;durP2;ratioP2;P2;SDS_P1;SDS_P2;PMS_P1;PMS_P2;Temp;Humidity;BMP_temperature;BMP_pressure;BME280_temperature;BME280_humidity;BME280_pressure;Samples;Min_cycle;Max_cycle;Signal;HPM_P1;HPM_P2
2022/08/24 00:01:52;;;;;;;0.50;0.50;;;19.00;89.70;;;18.90;74.68;95204.50;5013981;28;20240;-79
2022/08/24 00:04:20;;;;;;;0.50;0.50;;;18.90;89.80;;;18.92;75.09;95202.44;5033890;28;20196;-81
2022/08/24 00:06:48;;;;;;;0.50;0.50;;;18.90;89.90;;;18.91;75.03;95198.19;5031327;28;20220;-80
2022/08/24 00:09:16;;;;;;;0.55;0.55;;;18.90;90.00;;;18.91;74.59;95195.53;5026629;28;20219;-80
2022/08/24 00:11:43;;;;;;;0.50;0.50;;;19.00;89.90;;;18.90;74.48;95199.19;5027708;28;20209;-81
2022/08/24 00:14:10;;;;;;;0.50;0.50;;;18.90;89.90;;;18.92;74.73;95197.13;4997413;28;20208;-81
2022/08/24 00:16:38;;;;;;;0.50;0.50;;;18.90;89.80;;;18.93;74.99;95203.25;5012678;28;20232;-79
2022/08/24 00:19:05;;;;;;;0.50;0.50;;;18.90;89.90;;;18.92;75.02;95197.13;5033522;28;20246;-80
2022/08/24 00:21:32;;;;;;;0.40;0.40;;;18.90;89.90;;;18.95;74.74;95195.84;5029940;28;20208;-80
2022/08/24 00:23:59;;;;;;;0.70;0.70;;;18.90;90.00;;;18.93;74.88;95203.25;5016379;28;20200;-80
2022/08/24 00:26:29;;;;;;;0.50;0.50;;;18.90;90.00;;;18.94;74.73;95200.34;5012878;28;20236;-79
2022/08/24 00:28:57;;;;;;;0.50;0.50;;;18.90;90.00;;;18.95;75.07;95201.97;5006519;28;20289;-80
2022/08/24 00:31:25;;;;;;;0.50;0.50;;;18.90;90.00;;;18.95;74.75;95191.34;5012975;28;20221;-80
2022/08/24 00:33:53;;;;;;;0.50;0.50;;;18.90;90.00;;;18.96;75.05;95190.28;4996903;28;20211;-79
2022/08/24 00:36:22;;;;;;;0.55;0.55;;;19.00;90.00;;;18.97;75.03;95191.09;4996864;28;20242;-80
2022/08/24 00:38:50;;;;;;;0.50;0.50;;;19.00;90.00;;;18.98;75.03;95196.19;5012141;28;20205;-80
2022/08/24 00:41:17;;;;;;;0.52;0.52;;;19.00;90.00;;;18.99;75.00;95200.47;5023116;28;20238;-80
2022/08/24 00:44:03;;;;;;;0.52;0.52;;;19.00;90.00;;;18.98;75.02;95192.69;5032210;28;20200;-80
2022/08/24 00:46:46;;;;;;;0.50;0.50;;;19.00;89.80;;;18.97;74.91;95180.44;4996968;28;20216;-81
2022/08/24 00:49:36;;;;;;;0.50;0.50;;;19.00;89.90;;;18.94;74.80;95175.63;4998738;28;20284;-80
2022/08/24 00:52:11;;;;;;;0.50;0.50;;;19.00;89.80;;;18.94;74.79;95183.59;4997070;28;20571;-80
2022/08/24 00:54:46;;;;;;;0.50;0.50;;;19.00;89.80;;;18.96;74.51;95179.66;5013470;28;20565;-80
2022/08/24 00:57:18;;;;;;;0.50;0.50;;;19.00;89.80;;;18.97;75.14;95185.78;4999416;28;20251;-80
2022/08/24 00:59:55;;;;;;;0.70;0.70;;;19.00;89.80;;;18.98;74.66;95185.56;5024769;28;20200;-79
2022/08/24 01:02:30;;;;;;;0.50;0.50;;;19.00;89.80;;;18.99;74.66;95187.16;5029391;28;20220;-79
2022/08/24 01:05:06;;;;;;;0.60;0.60;;;19.00;89.90;;;18.99;74.92;95181.84;4996875;28;20204;-80
2022/08/24 01:07:36;;;;;;;0.50;0.50;;;19.00;89.80;;;19.00;74.95;95191.41;5012444;28;20701;-79
2022/08/24 01:10:10;;;;;;;0.50;0.50;;;19.00;90.00;;;19.03;75.06;95198.94;5022774;28;20641;-80
2022/08/24 01:12:42;;;;;;;0.50;0.50;;;19.00;89.90;;;19.05;74.93;95204.00;5031450;28;20303;-79
2022/08/24 01:15:34;;;;;;;0.40;0.40;;;19.00;90.00;;;19.03;74.75;95200.78;5032669;28;20208;-80
2022/08/24 01:21:25;;;;;;;0.50;0.50;;;19.00;89.90;;;18.97;74.42;95183.94;5007481;28;20573;-79
2022/08/24 01:23:57;;;;;;;0.50;0.50;;;19.10;89.90;;;18.96;74.86;95187.63;5013726;28;20251;-79
2022/08/24 01:26:37;;;;;;;0.47;0.47;;;19.00;89.70;;;18.94;74.66;95188.91;5016200;28;20592;-79
2022/08/24 01:29:14;;;;;;;0.50;0.50;;;19.00;89.50;;;18.91;74.61;95186.69;4999715;28;20204;-80
2022/08/24 01:31:42;;;;;;;0.40;0.40;;;19.00;89.40;;;18.91;74.44;95187.53;5031044;28;20303;-79
2022/08/24 01:34:11;;;;;;;0.50;0.50;;;19.00;89.50;;;18.90;75.03;95195.72;5024837;28;20230;-80
2022/08/24 01:36:45;;;;;;;0.50;0.50;;;19.00;89.60;;;18.90;74.87;95193.06;5000643;28;20278;-81
2022/08/24 01:39:21;;;;;;;0.50;0.50;;;19.00;89.50;;;18.91;74.78;95187.53;4996181;28;20227;-81
2022/08/24 01:41:49;;;;;;;0.43;0.43;;;19.00;89.70;;;18.94;74.78;95191.56;4979977;28;20224;-80
2022/08/24 01:44:19;;;;;;;0.52;0.52;;;19.00;89.80;;;18.95;75.03;95190.53;4998269;28;20208;-81
2022/08/24 01:46:52;;;;;;;0.50;0.50;;;19.00;89.90;;;18.99;75.02;95194.31;5015150;28;20235;-80
2022/08/24 01:49:25;;;;;;;0.50;0.50;;;19.00;89.90;;;19.00;75.09;95196.72;5015467;28;20207;-80
2022/08/24 01:51:52;;;;;;;0.50;0.50;;;19.00;89.90;;;19.04;75.14;95197.06;5001063;28;20227;-80
2022/08/24 01:54:21;;;;;;;0.40;0.40;;;19.00;90.00;;;19.06;75.07;95199.50;4996403;28;20200;-81
2022/08/24 01:56:48;;;;;;;0.50;0.50;;;19.00;90.00;;;19.04;74.77;95197.06;5010032;28;20227;-80
2022/08/24 01:59:18;;;;;;;0.50;0.50;;;19.00;89.90;;;18.99;74.57;95199.63;4983836;28;20220;-80
2022/08/24 02:02:23;;;;;;;0.43;0.43;;;19.00;89.80;;;19.00;74.96;95202.06;4989089;28;20267;-79
2022/08/24 02:04:50;;;;;;;0.40;0.40;;;19.00;89.60;;;18.98;74.76;95206.00;5020334;28;20224;-80
2022/08/24 02:07:18;;;;;;;0.50;0.50;;;19.00;89.60;;;19.00;74.78;95214.53;4995515;28;20795;-80
2022/08/24 02:09:46;;;;;;;0.40;0.40;;;19.00;89.60;;;19.02;75.02;95221.25;4995294;28;20700;-80
2022/08/24 02:12:15;;;;;;;0.50;0.50;;;19.00;89.70;;;19.04;74.56;95216.50;5012125;28;20212;-80
2022/08/24 02:14:43;;;;;;;0.50;0.50;;;19.00;89.80;;;19.05;75.02;95214.63;5007548;28;20298;-80
2022/08/24 02:17:10;;;;;;;0.50;0.50;;;19.00;89.80;;;19.06;74.94;95224.22;5012411;28;20624;-79
2022/08/24 02:19:38;;;;;;;0.50;0.50;;;19.00;89.80;;;19.08;74.68;95216.84;4994815;28;20196;-80
2022/08/24 02:22:06;;;;;;;0.50;0.50;;;19.00;89.70;;;19.06;74.91;95221.56;4995526;28;20209;-80
2022/08/24 02:24:36;;;;;;;0.50;0.50;;;19.00;89.60;;;18.98;74.77;95216.63;5000195;28;20197;-79
2022/08/24 02:27:04;;;;;;;0.47;0.47;;;19.00;89.50;;;19.04;74.49;95221.81;5027227;28;20237;-80
2022/08/24 02:29:32;;;;;;;0.40;0.40;;;19.00;89.50;;;19.02;74.54;95207.16;4979405;28;20193;-80
2022/08/24 02:31:59;;;;;;;0.50;0.50;;;19.10;89.70;;;19.04;74.72;95223.66;4995278;28;20220;-79
2022/08/24 02:34:26;;;;;;;0.50;0.50;;;19.00;89.60;;;19.04;74.74;95223.66;4994727;28;20667;-81
2022/08/24 02:36:53;;;;;;;0.52;0.52;;;19.10;89.50;;;18.98;74.50;95214.78;4986073;28;20228;-80
2022/08/24 02:39:21;;;;;;;0.50;0.50;;;19.10;89.40;;;19.00;74.26;95218.00;4995062;28;20603;-81
2022/08/24 02:41:51;;;;;;;0.60;0.60;;;19.00;89.30;;;19.00;74.72;95225.19;5003008;28;20216;-80
2022/08/24 02:44:19;;;;;;;0.40;0.40;;;19.00;89.30;;;18.99;74.66;95218.25;4995017;28;20295;-80
2022/08/24 02:46:47;;;;;;;0.50;0.50;;;19.00;89.30;;;18.99;74.75;95215.59;4982287;28;20701;-80
2022/08/24 02:49:17;;;;;;;0.50;0.50;;;19.00;89.50;;;18.99;74.86;95221.72;4994640;28;20200;-80
2022/08/24 02:51:46;;;;;;;0.45;0.45;;;19.00;89.40;;;18.97;74.47;95220.31;4979119;28;20220;-80
2022/08/24 02:54:18;;;;;;;0.45;0.45;;;19.00;90.00;;;18.95;74.87;95217.13;5016616;28;20274;-80
2022/08/24 02:56:48;;;;;;;0.45;0.45;;;19.00;89.30;;;18.95;74.54;95220.56;4979439;28;20240;-80
2022/08/24 02:59:16;;;;;;;0.50;0.50;;;19.00;89.40;;;18.95;74.37;95223.22;5011297;28;20259;-81
2022/08/24 03:01:45;;;;;;;0.50;0.50;;;19.00;89.40;;;18.94;74.60;95226.94;4994041;28;20224;-80
2022/08/24 03:04:16;;;;;;;0.45;0.45;;;19.00;89.40;;;18.96;74.93;95234.69;5014451;28;20231;-81
2022/08/24 03:06:44;;;;;;;0.50;0.50;;;19.00;89.50;;;18.99;74.40;95237.69;5013691;28;20262;-81
2022/08/24 03:09:12;;;;;;;0.70;0.70;;;19.00;89.60;;;18.99;74.68;95231.53;5002021;28;20204;-80
2022/08/24 03:11:40;;;;;;;0.50;0.50;;;19.00;89.80;;;19.07;74.71;95236.47;5025049;28;20217;-81
2022/08/24 03:14:12;;;;;;;0.50;0.50;;;19.10;90.00;;;19.09;74.68;95231.75;5015838;28;20792;-81
2022/08/24 03:16:40;;;;;;;0.40;0.40;;;19.00;90.00;;;19.13;74.86;95232.88;5004629;28;20213;-80
2022/08/24 03:19:08;;;;;;;0.50;0.50;;;19.00;90.00;;;19.16;74.92;95235.06;5021871;28;20211;-79
2022/08/24 03:21:37;;;;;;;0.40;0.40;;;19.00;90.00;;;19.16;74.47;95232.41;5015944;28;20228;-81
2022/08/24 03:24:04;;;;;;;0.50;0.50;;;19.10;90.00;;;19.20;74.74;95238.06;5016274;28;20204;-81
2022/08/24 03:26:32;;;;;;;0.50;0.50;;;19.10;90.00;;;19.22;74.36;95235.94;5016584;28;20208;-81
2022/08/24 03:28:59;;;;;;;0.43;0.43;;;19.10;90.00;;;19.25;74.53;95237.31;5010998;28;20220;-81
2022/08/24 03:31:27;;;;;;;0.50;0.50;;;19.10;90.00;;;19.26;74.41;95239.78;4995488;28;20279;-81
2022/08/24 03:33:55;;;;;;;0.47;0.47;;;19.10;90.00;;;19.30;74.80;95237.44;5014259;28;20287;-80
2022/08/24 03:36:22;;;;;;;0.50;0.50;;;19.20;90.00;;;19.32;74.98;95248.63;5013316;28;20251;-80
2022/08/24 03:38:49;;;;;;;0.50;0.50;;;19.20;90.00;;;19.33;74.73;95245.75;5022786;28;20621;-80
2022/08/24 03:41:18;;;;;;;0.50;0.50;;;19.20;90.00;;;19.34;74.44;95249.19;5036215;28;20751;-81
2022/08/24 03:43:45;;;;;;;0.45;0.45;;;19.20;89.80;;;19.36;74.44;95242.59;5032444;28;20274;-81
2022/08/24 03:46:23;;;;;;;0.40;0.40;;;19.20;89.80;;;19.36;74.17;95249.78;5021171;28;20200;-80
2022/08/24 03:48:53;;;;;;;0.50;0.50;;;19.20;89.70;;;19.39;74.43;95251.94;5002308;28;20288;-81
2022/08/24 03:51:26;;;;;;;0.50;0.50;;;19.20;89.80;;;19.39;74.43;95243.97;5016423;28;20248;-81
2022/08/24 03:53:56;;;;;;;0.50;0.50;;;19.20;89.70;;;19.34;74.56;95230.59;5012554;28;20197;-80
2022/08/24 03:56:27;;;;;;;0.57;0.57;;;19.30;89.80;;;19.30;73.95;95226.81;5030012;28;20491;-81
2022/08/24 03:58:56;;;;;;;0.60;0.60;;;19.30;89.50;;;19.27;74.10;95233.38;5002193;28;20192;-81
2022/08/24 04:01:26;;;;;;;0.50;0.50;;;19.30;89.20;;;19.20;73.80;95230.88;5009997;28;20212;-81
2022/08/24 04:03:54;;;;;;;0.47;0.47;;;19.30;89.10;;;19.15;74.06;95235.28;5013226;28;20210;-81
2022/08/24 04:06:28;;;;;;;0.50;0.50;;;19.30;88.90;;;19.12;74.32;95235.78;5031919;28;20249;-81
2022/08/24 04:08:56;;;;;;;0.40;0.40;;;19.20;89.60;;;19.10;73.81;95246.63;5016123;28;20204;-81
2022/08/24 04:11:27;;;;;;;0.50;0.50;;;19.20;88.90;;;19.09;74.36;95241.56;4997067;28;20323;-81
2022/08/24 04:13:57;;;;;;;0.50;0.50;;;19.20;88.90;;;19.06;74.25;95242.03;5011936;28;20563;-81
2022/08/24 04:16:26;;;;;;;0.50;0.50;;;19.20;89.00;;;19.06;74.55;95242.84;5000286;28;20593;-81
2022/08/24 04:19:04;;;;;;;0.55;0.55;;;19.10;89.00;;;19.04;74.38;95245.75;5012904;28;20674;-81
2022/08/24 04:21:35;;;;;;;0.60;0.60;;;19.20;89.20;;;19.00;74.85;95239.25;5012245;28;20220;-79
2022/08/24 04:24:07;;;;;;;0.50;0.50;;;19.10;89.20;;;19.05;74.66;95241.22;5008393;28;20205;-81
2022/08/24 04:26:38;;;;;;;0.65;0.65;;;19.10;89.20;;;19.03;74.77;95244.13;4992664;28;20254;-81
2022/08/24 04:29:18;;;;;;;0.50;0.50;;;19.10;89.30;;;19.06;74.79;95248.16;4999872;28;20201;-80
2022/08/24 04:31:54;;;;;;;0.50;0.50;;;19.10;89.30;;;19.06;74.42;95247.38;5017363;28;20317;-80
2022/08/24 04:34:22;;;;;;;0.60;0.60;;;19.10;89.30;;;19.06;74.37;95240.19;4996763;28;20255;-80
2022/08/24 04:36:50;;;;;;;0.50;0.50;;;19.10;89.30;;;19.08;74.69;95248.75;5014283;28;20228;-81
2022/08/24 04:39:17;;;;;;;0.50;0.50;;;19.10;89.40;;;19.13;74.61;95253.34;5014680;28;20292;-79
2022/08/24 04:41:58;;;;;;;0.50;0.50;;;19.10;89.60;;;19.13;74.61;95246.16;4984441;28;20232;-81
2022/08/24 04:44:34;;;;;;;0.45;0.45;;;19.10;89.60;;;19.17;74.69;95247.28;5027289;28;20211;-80
2022/08/24 04:47:02;;;;;;;0.50;0.50;;;19.10;89.70;;;19.22;74.87;95245.78;4996898;28;20217;-81
2022/08/24 04:49:30;;;;;;;0.50;0.50;;;19.10;89.80;;;19.25;74.55;95248.78;5014354;28;20205;-79
2022/08/24 04:51:57;;;;;;;0.55;0.55;;;19.20;89.90;;;19.27;74.58;95251.19;5013206;28;20232;-80
2022/08/24 04:54:26;;;;;;;0.50;0.50;;;19.20;89.90;;;19.31;74.87;95252.31;5011191;28;20205;-80
2022/08/24 04:57:15;;;;;;;0.50;0.50;;;19.20;89.90;;;19.33;74.45;95261.72;5009796;28;20762;-80
2022/08/24 04:59:45;;;;;;;0.40;0.40;;;19.20;89.90;;;19.37;74.58;95264.66;5000197;28;20299;-81
2022/08/24 05:02:13;;;;;;;0.47;0.47;;;19.30;90.00;;;19.40;74.56;95264.22;5016471;28;20222;-80
2022/08/24 05:04:41;;;;;;;0.50;0.50;;;19.30;90.00;;;19.43;74.68;95265.56;5015778;28;20423;-81
2022/08/24 05:07:08;;;;;;;0.50;0.50;;;19.30;90.00;;;19.46;74.52;95273.09;4998070;28;20213;-80
2022/08/24 05:09:39;;;;;;;0.40;0.40;;;19.40;90.00;;;19.49;74.73;95277.91;5019697;28;20208;-80
2022/08/24 05:12:07;;;;;;;0.40;0.40;;;19.40;90.00;;;19.52;74.82;95264.94;5003280;28;20294;-79
2022/08/24 05:14:38;;;;;;;0.47;0.47;;;19.40;90.00;;;19.51;74.95;95262.53;5015294;28;20694;-79
2022/08/24 05:17:06;;;;;;;0.52;0.52;;;19.50;90.00;;;19.60;74.67;95273.59;5028190;28;20232;-80
2022/08/24 05:19:36;;;;;;;0.50;0.50;;;19.50;90.00;;;19.61;74.82;95272.56;5012497;28;20607;-79
2022/08/24 05:22:04;;;;;;;0.50;0.50;;;19.50;90.00;;;19.59;74.49;95256.00;4997900;28;20228;-80
2022/08/24 05:24:31;;;;;;;0.50;0.50;;;19.60;90.00;;;19.65;74.92;95265.69;4998364;28;20267;-80
2022/08/24 05:26:59;;;;;;;0.40;0.40;;;19.60;89.90;;;19.63;74.34;95263.28;5015193;28;20224;-81
2022/08/24 05:29:26;;;;;;;0.47;0.47;;;19.60;89.80;;;19.63;74.80;95262.47;5012680;28;20291;-80
2022/08/24 05:31:54;;;;;;;0.40;0.40;;;19.70;89.80;;;19.62;74.36;95259.00;5010725;28;20306;-80
2022/08/24 05:34:23;;;;;;;0.45;0.45;;;19.70;89.80;;;19.61;74.67;95259.25;5029606;28;20207;-80
2022/08/24 05:36:51;;;;;;;0.50;0.50;;;19.70;89.70;;;19.64;74.51;95259.56;5015592;28;20310;-80
2022/08/24 05:39:37;;;;;;;0.50;0.50;;;19.70;89.50;;;19.64;74.54;95262.22;5025863;28;20566;-80
2022/08/24 05:42:07;;;;;;;0.50;0.50;;;19.70;89.50;;;19.66;74.71;95254.00;4996919;28;20228;-80
2022/08/24 05:44:42;;;;;;;0.45;0.45;;;19.80;89.70;;;19.70;74.81;95263.13;4984036;28;20602;-80
2022/08/24 05:47:10;;;;;;;0.50;0.50;;;19.80;89.80;;;19.68;74.82;95263.34;5012239;28;20224;-81
2022/08/24 05:49:37;;;;;;;0.50;0.50;;;19.80;89.60;;;19.68;74.54;95258.03;4995207;28;20203;-80
2022/08/24 05:52:09;;;;;;;0.40;0.40;;;19.80;89.50;;;19.66;74.81;95254.81;4984769;28;20710;-80
2022/08/24 05:54:36;;;;;;;0.40;0.40;;;19.80;89.50;;;19.72;74.76;95257.56;5012994;28;20283;-79
2022/08/24 05:57:05;;;;;;;0.50;0.50;;;19.80;89.70;;;19.78;74.83;95257.41;5032096;28;20223;-81
2022/08/24 05:59:38;;;;;;;0.50;0.50;;;19.90;89.80;;;19.78;74.77;95260.06;5018668;28;20215;-81
2022/08/24 06:02:16;;;;;;;0.50;0.50;;;19.90;89.70;;;19.80;74.72;95250.00;4997090;28;20220;-80
2022/08/24 06:04:43;;;;;;;0.50;0.50;;;20.00;89.40;;;19.84;74.76;95251.13;5002787;28;20211;-81
2022/08/24 06:07:12;;;;;;;0.60;0.60;;;20.00;89.60;;;19.91;75.03;95258.16;4995895;28;20216;-81
2022/08/24 06:09:44;;;;;;;0.50;0.50;;;20.00;89.80;;;19.97;74.95;95255.34;5024888;28;20215;-81
2022/08/24 06:12:11;;;;;;;0.40;0.40;;;20.00;90.00;;;20.06;75.27;95260.28;4991768;28;20278;-80
2022/08/24 06:14:46;;;;;;;0.40;0.40;;;20.10;90.00;;;20.13;74.74;95252.91;4987460;28;20670;-80
2022/08/24 06:17:14;;;;;;;0.47;0.47;;;20.10;89.90;;;20.24;75.02;95253.88;4995167;28;20287;-80
2022/08/24 06:19:42;;;;;;;0.40;0.40;;;20.20;90.00;;;20.30;75.13;95253.69;4993454;28;20725;-80
2022/08/24 06:22:09;;;;;;;0.40;0.40;;;20.20;90.00;;;;;;4985695;28;21042;-80
2022/08/24 06:27:27;;;;;;;0.50;0.50;;;20.40;90.00;;;20.51;74.85;95261.97;4998903;28;21405;-80
2022/08/24 06:30:03;;;;;;;0.40;0.40;;;20.50;90.10;;;20.55;74.68;95255.09;4990526;28;20687;-79
2022/08/24 06:32:52;;;;;;;0.45;0.45;;;20.50;89.70;;;20.62;75.12;95255.72;4982443;28;20213;-79
2022/08/24 06:35:25;;;;;;;0.40;0.40;;;20.60;90.00;;;20.70;74.94;95259.84;4988510;28;20671;-80
2022/08/24 06:37:54;;;;;;;0.47;0.47;;;20.70;90.10;;;20.81;74.92;95254.66;4998016;28;20234;-80
2022/08/24 06:40:24;;;;;;;0.40;0.40;;;20.70;90.10;;;20.85;74.78;95245.09;4980689;28;20289;-80
2022/08/24 06:42:53;;;;;;;0.40;0.40;;;20.90;90.10;;;20.94;74.42;95247.06;5001454;28;20231;-80
2022/08/24 06:45:42;;;;;;;0.47;0.47;;;20.90;90.00;;;21.04;74.76;95248.25;5004320;28;21160;-79
2022/08/24 06:48:12;;;;;;;0.40;0.40;;;21.00;90.00;;;21.11;74.72;95249.66;4974060;28;20577;-80
2022/08/24 06:50:39;;;;;;;0.40;0.40;;;21.10;90.00;;;21.19;74.38;95255.59;4990272;28;20203;-80
2022/08/24 06:53:08;;;;;;;0.40;0.40;;;21.20;89.90;;;21.24;74.44;95261.81;4998349;28;20337;-82
2022/08/24 06:55:36;;;;;;;0.40;0.40;;;21.20;89.70;;;21.30;74.62;95260.03;5005452;28;20231;-79
2022/08/24 06:58:03;;;;;;;0.40;0.40;;;21.30;89.80;;;21.41;74.76;95269.72;4980286;28;20228;-80
2022/08/24 07:00:30;;;;;;;0.40;0.40;;;21.40;89.90;;;21.49;74.44;95265.78;4980616;28;20218;-79
2022/08/24 07:02:57;;;;;;;0.40;0.40;;;21.40;89.80;;;21.58;74.62;95263.50;5002070;28;20368;-80
2022/08/24 07:05:26;;;;;;;0.40;0.40;;;21.50;89.90;;;21.63;74.45;95260.06;4992051;28;20196;-81
2022/08/24 07:08:23;;;;;;;0.40;0.40;;;21.60;89.80;;;21.74;74.13;95280.50;5019874;28;20227;-81
2022/08/24 07:10:50;;;;;;;0.40;0.40;;;21.70;89.50;;;21.78;73.87;95270.91;4990481;28;20301;-80
2022/08/24 07:13:18;;;;;;;0.40;0.40;;;21.70;89.00;;;21.81;73.72;95272.25;4978765;28;20215;-80
2022/08/24 07:15:46;;;;;;;0.40;0.40;;;21.80;89.00;;;21.85;73.86;95276.00;4993628;28;20235;-80
2022/08/24 07:18:16;;;;;;;0.30;0.30;;;21.80;88.80;;;21.87;73.60;95280.06;5009267;28;20343;-81
2022/08/24 07:20:48;;;;;;;0.40;0.40;;;21.80;88.60;;;21.91;73.63;95286.50;5041019;28;20218;-81
2022/08/24 07:23:27;;;;;;;0.40;0.40;;;21.90;88.70;;;21.90;73.38;95282.22;5002588;28;20212;-80
2022/08/24 07:26:17;;;;;;;0.40;0.40;;;21.90;88.60;;;21.93;73.38;95283.56;4966725;28;20220;-80
2022/08/24 07:29:04;;;;;;;0.50;0.50;;;21.90;88.30;;;21.95;73.40;95281.47;5005104;28;20667;-81
2022/08/24 07:31:42;;;;;;;0.40;0.40;;;21.90;88.30;;;22.01;73.48;95287.66;5024273;28;20311;-81
2022/08/24 07:34:20;;;;;;;0.40;0.40;;;22.00;89.20;;;22.05;73.53;95291.41;4992242;28;20212;-80
2022/08/24 07:36:49;;;;;;;0.40;0.40;;;22.00;88.60;;;22.07;73.51;95292.78;4983058;28;20227;-81
2022/08/24 07:39:16;;;;;;;0.40;0.40;;;22.00;88.40;;;22.07;73.03;95292.78;5003658;28;20234;-81
2022/08/24 07:41:44;;;;;;;0.40;0.40;;;22.10;88.10;;;22.09;72.97;95291.72;4974754;28;20985;-79
2022/08/24 07:44:33;;;;;;;0.40;0.40;;;22.10;88.00;;;22.07;72.85;95292.78;4978977;28;20207;-80
2022/08/24 07:47:00;;;;;;;0.40;0.40;;;22.10;87.80;;;22.10;73.13;95301.34;4985816;28;20751;-80
2022/08/24 07:49:48;;;;;;;0.40;0.40;;;22.10;87.90;;;22.11;73.24;95290.41;4982711;28;20230;-81
2022/08/24 07:52:15;;;;;;;0.40;0.40;;;22.20;88.30;;;22.23;73.44;95300.91;4996373;28;20228;-81
2022/08/24 07:54:43;;;;;;;0.40;0.40;;;22.20;88.30;;;22.30;73.59;95303.34;5026403;28;20220;-81
2022/08/24 07:57:11;;;;;;;0.38;0.38;;;22.30;89.40;;;22.39;73.75;95299.97;4993542;28;20236;-80
2022/08/24 07:59:38;;;;;;;0.40;0.40;;;22.30;88.60;;;22.51;73.57;95309.69;4996511;28;20341;-80
2022/08/24 08:02:07;;;;;;;0.40;0.40;;;22.40;88.40;;;22.57;73.19;95303.31;4979934;28;20229;-80
2022/08/24 08:04:34;;;;;;;0.40;0.40;;;22.50;88.40;;;22.61;72.97;95307.06;5027325;28;20223;-81
2022/08/24 08:07:02;;;;;;;0.38;0.38;;;22.60;88.30;;;22.67;73.24;95303.34;5018935;28;20275;-80
2022/08/24 08:09:33;;;;;;;0.40;0.40;;;22.60;88.30;;;22.80;73.22;95303.97;4995613;28;20528;-80
2022/08/24 08:12:00;;;;;;;0.40;0.40;;;22.80;88.40;;;22.91;73.38;95307.50;5019881;28;20220;-81
2022/08/24 08:14:29;;;;;;;0.38;0.38;;;22.80;88.60;;;23.01;73.06;95302.19;5028753;28;20581;-80
2022/08/24 08:16:56;;;;;;;0.40;0.40;;;22.90;88.70;;;23.13;73.53;95301.97;5015093;28;20640;-79
2022/08/24 08:19:23;;;;;;;0.30;0.30;;;23.00;88.70;;;23.27;73.43;95300.44;5011137;28;20317;-81
2022/08/24 08:25:01;;;;;;;0.30;0.30;;;23.30;88.50;;;23.53;73.21;95297.84;5025987;28;20220;-81
2022/08/24 08:27:28;;;;;;;0.32;0.32;;;23.50;88.40;;;23.66;73.03;95302.69;5012806;28;20686;-80
2022/08/24 08:29:56;;;;;;;0.50;0.50;;;23.60;88.10;;;23.78;72.56;95299.75;4995752;28;20199;-81
2022/08/24 08:32:23;;;;;;;0.38;0.38;;;23.80;88.10;;;23.89;73.05;95300.56;5021666;28;20232;-80
2022/08/24 08:34:50;;;;;;;0.40;0.40;;;23.90;88.10;;;24.02;72.63;95307.28;4996568;28;20201;-80
2022/08/24 08:37:19;;;;;;;0.30;0.30;;;24.10;88.00;;;24.09;72.97;95294.44;5014521;28;20213;-81
2022/08/24 08:39:46;;;;;;;0.40;0.40;;;24.20;87.70;;;24.21;71.88;95306.78;4993618;28;20247;-81
2022/08/24 08:42:36;;;;;;;0.30;0.30;;;24.30;86.90;;;24.26;71.63;95309.44;5011344;28;20224;-81
2022/08/24 08:45:34;;;;;;;0.32;0.32;;;24.40;86.20;;;24.33;70.97;95301.94;5010496;28;20213;-81
2022/08/24 08:48:31;;;;;;;0.30;0.30;;;24.50;85.20;;;24.45;71.88;95307.03;5019040;28;20294;-80
2022/08/24 08:51:33;;;;;;;0.30;0.30;;;24.60;85.00;;;24.54;71.39;95312.66;5017708;28;20252;-81
2022/08/24 08:54:29;;;;;;;0.50;0.50;;;24.70;85.50;;;24.57;71.42;95304.88;4985991;28;20216;-81
2022/08/24 08:57:38;;;;;;;0.30;0.30;;;24.80;85.40;;;24.58;70.45;95303.78;5008318;28;20239;-80
2022/08/24 09:00:15;;;;;;;0.40;0.40;;;24.80;84.80;;;24.59;69.50;95307.28;5029382;28;20286;-79
2022/08/24 09:03:25;;;;;;;0.45;0.45;;;24.90;84.70;;;24.62;70.22;95310.22;5006135;28;20584;-79
2022/08/24 09:06:46;;;;;;;0.30;0.30;;;24.90;85.10;;;24.65;70.10;95308.88;5019025;28;20234;-81
2022/08/24 09:09:35;;;;;;;0.30;0.30;;;24.90;84.30;;;24.67;69.20;95305.94;5030290;28;20221;-80
2022/08/24 09:13:00;;;;;;;0.30;0.30;;;25.00;84.30;;;24.69;69.42;95311.84;5006865;28;20241;-81
2022/08/24 09:16:03;;;;;;;0.30;0.30;;;25.00;82.90;;;24.71;69.76;95299.75;5012564;28;20295;-81
2022/08/24 09:19:13;;;;;;;0.50;0.50;;;25.00;84.10;;;24.68;69.80;95303.00;5013860;28;20615;-80
2022/08/24 09:22:07;;;;;;;0.30;0.30;;;25.00;83.30;;;24.68;69.30;95305.69;5017220;28;20224;-80
2022/08/24 09:24:44;;;;;;;0.30;0.30;;;24.90;83.40;;;24.53;66.55;95311.03;5009071;28;20203;-80
2022/08/24 09:28:30;;;;;;;0.30;0.30;;;24.90;81.90;;;24.40;68.20;95313.19;5004689;28;20922;-79
2022/08/24 09:31:22;;;;;;;0.45;0.45;;;24.80;82.40;;;24.38;68.69;95307.28;5013274;28;20591;-80
2022/08/24 09:34:45;;;;;;;0.40;0.40;;;24.70;82.50;;;24.39;69.60;95316.94;5022684;28;20210;-81
2022/08/24 09:37:31;;;;;;;0.30;0.30;;;24.60;82.60;;;24.47;69.86;95312.91;5006282;28;20225;-81
2022/08/24 09:40:30;;;;;;;0.30;0.30;;;24.70;84.30;;;24.60;70.25;95325.75;4981876;28;20342;-83
2022/08/24 09:43:20;;;;;;;0.30;0.30;;;24.70;85.00;;;24.69;68.71;95330.63;5008045;28;20284;-81
2022/08/24 09:46:17;;;;;;;0.30;0.30;;;24.80;84.20;;;24.89;69.98;95329.75;4978969;28;20644;-82
2022/08/24 09:49:31;;;;;;;0.50;0.50;;;24.90;83.70;;;25.09;70.15;95327.00;5011568;28;20207;-81
2022/08/24 09:52:37;;;;;;;0.38;0.38;;;25.00;83.70;;;25.31;70.11;95319.69;5018067;28;20221;-82
2022/08/24 09:55:31;;;;;;;0.30;0.30;;;25.20;84.30;;;25.52;69.84;95318.56;5019278;28;20250;-82
2022/08/24 09:59:00;;;;;;;0.40;0.40;;;25.40;84.00;;;25.71;69.72;95315.22;5024277;28;20232;-81
2022/08/24 10:01:44;;;;;;;0.30;0.30;;;25.60;84.00;;;25.88;69.56;95310.25;5025096;28;20747;-81
2022/08/24 10:04:31;;;;;;;0.30;0.30;;;25.80;84.70;;;25.99;69.31;95308.31;4997715;28;20319;-81
2022/08/24 10:07:23;;;;;;;0.30;0.30;;;25.90;83.00;;;26.05;69.23;95301.00;5009485;28;20227;-81
2022/08/24 10:10:06;;;;;;;0.30;0.30;;;26.10;82.30;;;26.13;68.63;95308.47;4979676;28;20230;-82
2022/08/24 10:12:58;;;;;;;0.30;0.30;;;26.10;83.30;;;26.14;68.12;95315.47;5009508;28;20236;-80
2022/08/24 10:15:46;;;;;;;0.30;0.30;;;26.20;83.10;;;26.11;67.79;95315.22;5005817;28;20203;-82
2022/08/24 10:18:44;;;;;;;0.30;0.30;;;26.20;81.30;;;26.04;67.73;95316.31;5011701;28;20213;-82
2022/08/24 10:21:46;;;;;;;0.30;0.30;;;26.20;81.30;;;25.97;67.98;95325.78;5004590;28;20226;-82
2022/08/24 10:24:20;;;;;;;0.38;0.38;;;26.20;81.60;;;25.85;66.58;95320.75;5027193;28;20677;-80
2022/08/24 10:27:19;;;;;;;0.30;0.30;;;26.10;81.20;;;25.66;66.84;95320.59;5030110;28;20303;-82
2022/08/24 10:30:30;;;;;;;0.35;0.35;;;25.90;79.70;;;25.50;66.80;95328.75;5013313;28;20267;-80
2022/08/24 10:33:22;;;;;;;0.30;0.30;;;25.80;79.90;;;25.37;66.25;95323.97;5019395;28;20373;-82
2022/08/24 10:36:04;;;;;;;0.30;0.30;;;25.70;80.00;;;25.30;66.51;95318.88;5029778;28;20665;-80
2022/08/24 10:45:38;;;;;;;0.30;0.30;;;25.50;81.40;;;25.49;66.57;95326.34;5023818;28;20247;-81
2022/08/24 10:48:30;;;;;;;0.40;0.40;;;25.60;79.40;;;25.63;66.93;95330.03;5000805;28;20208;-82
2022/08/24 10:51:27;;;;;;;0.30;0.30;;;25.70;81.20;;;25.80;67.29;95320.81;4993693;28;20228;-82
2022/08/24 10:53:55;;;;;;;0.30;0.30;;;25.80;82.00;;;25.92;66.71;95309.72;4995102;28;20185;-81
2022/08/24 10:56:47;;;;;;;0.30;0.30;;;25.90;81.70;;;26.02;66.03;95317.69;4980610;28;20231;-82
2022/08/24 10:59:33;;;;;;;0.30;0.30;;;26.10;81.20;;;26.09;66.31;95306.66;5017811;28;20309;-80
2022/08/24 11:02:27;;;;;;;0.30;0.30;;;26.20;79.70;;;26.15;66.68;95309.00;5022723;28;20616;-81
2022/08/24 11:05:04;;;;;;;0.30;0.30;;;26.20;81.10;;;26.22;66.12;95306.00;4999701;28;20212;-81
2022/08/24 11:07:32;;;;;;;0.40;0.40;;;26.30;80.50;;;26.33;66.59;95307.53;4986744;28;20220;-80
2022/08/24 11:10:09;;;;;;;0.35;0.35;;;26.30;81.40;;;26.41;66.33;95299.94;5011817;28;20228;-82
2022/08/24 11:12:43;;;;;;;0.30;0.30;;;26.50;81.00;;;26.53;66.43;95305.72;5013281;28;20291;-81